Time;durP1;ratioP1;P1;durP2;ratioP2;P2;SDS_P1;SDS_P2;PMS_P1;PMS_P2;Temp;Humidity;BMP_temperature;BMP_pressure;BME280_temperature;BME280_humidity;BME280_pressure;Samples;Min_cycle;Max_cycle;Signal;HPM_P1;HPM_P2
2023/01/10 00:00:31;;;;;;;9.30;4.15;;;6.70;99.90;;;;;;2080909;28;20018;-76
2023/01/10 00:01:31;;;;;;;6.30;3.55;;;6.60;99.90;;;;;;2072979;28;20628;-76
2023/01/10 00:02:32;;;;;;;6.13;3.42;;;6.60;99.90;;;;;;2078029;28;20121;-77
2023/01/10 00:03:33;;;;;;;3.65;2.97;;;6.70;99.90;;;;;;2082359;28;20086;-77
2023/01/10 00:04:33;;;;;;;6.85;3.30;;;6.70;99.90;;;;;;2064638;28;20145;-75
2023/01/10 00:05:35;;;;;;;7.07;3.70;;;6.60;99.90;;;;;;2068326;28;20120;-75
2023/01/10 00:06:36;;;;;;;3.97;2.83;;;6.70;99.90;;;;;;2075632;28;20133;-74
2023/01/10 00:07:36;;;;;;;3.65;3.00;;;6.70;99.90;;;;;;2078361;28;20091;-74
2023/01/10 00:08:37;;;;;;;7.07;4.00;;;6.70;99.90;;;;;;2079796;28;20025;-75
2023/01/10 00:09:37;;;;;;;9.07;4.03;;;6.60;99.90;;;;;;2070395;28;20061;-75
2023/01/10 00:10:38;;;;;;;5.20;3.40;;;6.70;99.90;;;;;;2066770;28;20517;-75
2023/01/10 00:14:17;;;;;;;5.13;3.35;;;6.70;99.90;;;;;;2066529;28;20021;-76
2023/01/10 00:15:18;;;;;;;5.32;3.10;;;6.70;99.90;;;;;;2082538;28;20112;-74
2023/01/10 00:16:18;;;;;;;5.00;3.13;;;6.70;99.90;;;;;;2081939;28;20433;-74
2023/01/10 00:17:20;;;;;;;4.50;3.10;;;6.70;99.90;;;;;;2087242;28;20215;-75
2023/01/10 00:18:21;;;;;;;5.28;3.08;;;6.70;99.90;;;;;;2087182;28;20024;-74
2023/01/10 00:19:22;;;;;;;5.57;3.03;;;6.70;99.90;;;;;;2081376;28;20021;-74
2023/01/10 00:20:22;;;;;;;4.70;3.05;;;6.70;99.90;;;;;;2069351;28;20473;-75
2023/01/10 00:21:23;;;;;;;5.35;3.30;;;6.70;99.90;;;;;;2069351;28;20037;-75
2023/01/10 00:22:24;;;;;;;5.35;3.20;;;6.70;99.90;;;;;;2069629;28;20311;-76
2023/01/10 00:23:25;;;;;;;5.07;3.30;;;6.70;99.90;;;;;;2081386;28;20036;-76
2023/01/10 00:24:26;;;;;;;5.18;3.50;;;6.70;99.90;;;;;;2070824;28;20037;-75
2023/01/10 00:25:26;;;;;;;5.57;3.60;;;6.70;99.90;;;;;;2072565;28;20060;-76
2023/01/10 00:26:27;;;;;;;10.63;4.22;;;6.70;99.90;;;;;;2077986;28;20511;-76
2023/01/10 00:27:28;;;;;;;7.15;4.00;;;6.70;99.90;;;;;;2070306;28;20247;-75
2023/01/10 00:28:33;;;;;;;8.23;4.45;;;6.70;99.90;;;;;;2063792;28;20029;-75
2023/01/10 00:29:34;;;;;;;8.63;3.80;;;6.70;99.90;;;;;;2059949;28;20575;-77
2023/01/10 00:30:37;;;;;;;8.52;4.18;;;6.70;99.90;;;;;;2070033;28;20083;-76
2023/01/10 00:31:37;;;;;;;9.35;4.45;;;6.80;99.90;;;;;;2078882;28;20112;-76
2023/01/10 00:32:43;;;;;;;8.63;4.00;;;6.80;99.90;;;;;;2078369;28;20033;-75
2023/01/10 00:33:44;;;;;;;5.75;3.63;;;6.80;99.90;;;;;;2075732;28;20088;-74
2023/01/10 00:34:44;;;;;;;5.53;3.50;;;6.80;99.90;;;;;;2070542;28;20112;-75
2023/01/10 00:35:46;;;;;;;6.50;3.58;;;6.80;99.90;;;;;;2071072;28;20165;-75
2023/01/10 00:36:47;;;;;;;5.45;3.50;;;6.80;99.90;;;;;;2064064;28;20512;-74
2023/01/10 00:37:47;;;;;;;5.85;3.72;;;6.80;99.90;;;;;;2066611;28;20026;-74
2023/01/10 00:38:48;;;;;;;5.57;3.67;;;6.80;99.90;;;;;;2070880;28;20063;-75
2023/01/10 00:39:49;;;;;;;5.88;3.53;;;6.80;99.90;;;;;;2072411;28;20478;-74
2023/01/10 00:40:49;;;;;;;12.57;5.28;;;6.80;99.90;;;;;;2061256;28;20026;-75
2023/01/10 00:44:29;;;;;;;8.27;4.20;;;6.80;99.90;;;;;;2077353;28;20096;-74
2023/01/10 00:45:29;;;;;;;7.57;4.13;;;6.80;99.90;;;;;;2065612;28;20105;-75
2023/01/10 00:46:30;;;;;;;5.95;4.10;;;6.80;99.90;;;;;;2069010;28;20068;-75
2023/01/10 00:47:30;;;;;;;5.80;3.67;;;6.80;99.90;;;;;;2069595;28;20041;-75
2023/01/10 00:48:31;;;;;;;8.93;3.90;;;6.80;99.90;;;;;;2069571;28;20029;-75
2023/01/10 00:49:31;;;;;;;4.28;3.33;;;6.80;99.90;;;;;;2077586;28;20029;-75
2023/01/10 00:50:32;;;;;;;3.63;3.13;;;6.80;99.90;;;;;;2079856;28;20363;-75
2023/01/10 00:51:33;;;;;;;4.95;3.20;;;6.70;99.90;;;;;;2082586;28;20036;-75
2023/01/10 00:52:33;;;;;;;4.78;3.13;;;6.80;99.90;;;;;;2076627;28;20116;-75
2023/01/10 00:53:34;;;;;;;8.07;3.60;;;6.80;99.90;;;;;;2070771;28;20044;-74
2023/01/10 00:54:34;;;;;;;6.85;3.80;;;6.80;99.90;;;;;;2069151;28;20168;-75
2023/01/10 00:55:35;;;;;;;6.25;3.65;;;6.70;99.90;;;;;;2078434;28;20116;-74
2023/01/10 00:56:36;;;;;;;5.32;3.40;;;6.80;99.90;;;;;;2077945;28;20102;-75
2023/01/10 00:57:37;;;;;;;4.88;3.65;;;6.70;99.90;;;;;;2084965;28;20476;-75
2023/01/10 00:58:37;;;;;;;6.35;3.35;;;6.70;99.90;;;;;;2079907;28;20113;-75
2023/01/10 00:59:38;;;;;;;5.03;3.45;;;6.70;99.90;;;;;;2076146;28;20017;-74
2023/01/10 01:00:39;;;;;;;3.97;3.15;;;6.70;99.90;;;;;;2086975;28;20149;-74
2023/01/10 01:01:39;;;;;;;5.60;3.40;;;6.70;99.90;;;;;;2087991;28;20028;-74
2023/01/10 01:02:40;;;;;;;6.93;3.30;;;6.70;99.90;;;;;;2077963;28;20041;-75
2023/01/10 01:03:40;;;;;;;5.65;3.50;;;6.70;99.90;;;;;;2069148;28;20483;-74
2023/01/10 01:04:41;;;;;;;6.43;3.85;;;6.70;99.90;;;;;;2071469;28;20488;-75
2023/01/10 01:05:43;;;;;;;5.32;3.58;;;6.70;99.90;;;;;;2080952;28;20025;-74
2023/01/10 01:06:45;;;;;;;5.95;3.60;;;6.70;99.90;;;;;;2079332;28;20045;-75
2023/01/10 01:07:49;;;;;;;5.53;3.60;;;6.70;99.90;;;;;;2078762;28;20029;-75
2023/01/10 01:08:50;;;;;;;5.40;3.72;;;6.70;99.90;;;;;;2078650;28;20060;-75
2023/01/10 01:11:09;;;;;;;6.10;3.22;;;6.70;99.90;;;;;;2081220;28;20033;-75
2023/01/10 01:12:10;;;;;;;4.80;3.47;;;6.70;99.90;;;;;;2079294;28;20032;-75
2023/01/10 01:13:17;;;;;;;5.68;3.40;;;6.70;99.90;;;;;;2086998;28;20125;-74
2023/01/10 01:14:17;;;;;;;6.72;3.83;;;6.70;99.90;;;;;;2085872;28;20059;-75
2023/01/10 01:15:18;;;;;;;6.03;3.60;;;6.70;99.90;;;;;;2078833;28;20400;-74
2023/01/10 01:16:18;;;;;;;8.32;4.45;;;6.70;99.90;;;;;;2079280;28;20498;-75
2023/01/10 01:17:19;;;;;;;5.28;3.78;;;6.70;99.90;;;;;;2073258;28;20083;-75
2023/01/10 01:18:20;;;;;;;5.43;3.78;;;6.70;99.90;;;;;;2068645;28;20033;-74
2023/01/10 01:19:21;;;;;;;5.57;3.92;;;6.70;99.90;;;;;;2078035;28;20033;-74
2023/01/10 01:20:22;;;;;;;4.88;3.70;;;6.70;99.90;;;;;;2081096;28;20068;-75
2023/01/10 01:21:27;;;;;;;5.80;3.70;;;6.70;99.90;;;;;;2077719;28;20151;-75
2023/01/10 01:22:27;;;;;;;6.57;3.88;;;6.70;99.90;;;;;;2066893;28;20056;-75
2023/01/10 01:23:29;;;;;;;5.95;3.60;;;6.70;99.90;;;;;;2065632;28;20029;-75
2023/01/10 01:24:29;;;;;;;7.20;4.00;;;6.70;99.90;;;;;;2078101;28;20255;-75
2023/01/10 01:25:30;;;;;;;5.05;3.70;;;6.70;99.90;;;;;;2087879;28;20403;-75
2023/01/10 01:26:31;;;;;;;6.05;4.00;;;6.70;99.90;;;;;;2085431;28;20025;-75
2023/01/10 01:27:31;;;;;;;5.57;3.47;;;6.70;99.90;;;;;;2069222;28;20033;-75
2023/01/10 01:28:32;;;;;;;6.00;3.63;;;6.70;99.90;;;;;;2068956;28;20073;-75
2023/01/10 01:29:33;;;;;;;9.90;3.65;;;6.70;99.90;;;;;;2071970;28;20021;-75
2023/01/10 01:30:33;;;;;;;6.18;3.80;;;6.70;99.90;;;;;;2062546;28;20038;-75
2023/01/10 01:31:34;;;;;;;6.30;3.65;;;6.70;99.90;;;;;;2067291;28;20030;-76
2023/01/10 01:32:34;;;;;;;4.35;3.40;;;6.70;99.90;;;;;;2075243;28;20075;-75
2023/01/10 01:33:35;;;;;;;6.47;3.90;;;6.70;99.90;;;;;;2069928;28;20029;-74
2023/01/10 01:34:36;;;;;;;5.65;3.72;;;6.70;99.90;;;;;;2071546;28;20029;-74
2023/01/10 01:35:36;;;;;;;5.97;3.53;;;6.70;99.90;;;;;;2078739;28;20131;-75
2023/01/10 01:36:37;;;;;;;4.97;3.58;;;6.70;99.90;;;;;;2077766;28;20504;-74
2023/01/10 01:37:37;;;;;;;5.90;3.60;;;6.70;99.90;;;;;;2077891;28;20030;-75
2023/01/10 01:38:39;;;;;;;4.55;3.35;;;6.70;99.90;;;;;;2078825;28;20034;-75
2023/01/10 01:39:40;;;;;;;6.07;3.40;;;6.70;99.90;;;;;;2081227;28;20036;-75
2023/01/10 01:40:40;;;;;;;6.10;3.90;;;6.70;99.90;;;;;;2065800;28;20037;-75
2023/01/10 01:41:56;;;;;;;5.78;3.65;;;6.70;99.90;;;;;;2065909;28;20022;-75
2023/01/10 01:42:56;;;;;;;6.43;3.55;;;6.70;99.90;;;;;;2078218;28;20021;-74
2023/01/10 01:44:05;;;;;;;6.18;3.90;;;6.70;99.90;;;;;;2084664;28;20032;-76
2023/01/10 01:45:31;;;;;;;6.30;3.70;;;6.70;99.90;;;;;;2079319;28;20029;-75
2023/01/10 01:46:35;;;;;;;5.25;3.60;;;6.70;99.90;;;;;;2070206;28;20038;-76
2023/01/10 01:47:35;;;;;;;5.95;3.92;;;6.70;99.90;;;;;;2072566;28;20032;-76
2023/01/10 01:48:41;;;;;;;6.88;3.60;;;6.70;99.90;;;;;;2069110;28;20029;-75
2023/01/10 01:49:43;;;;;;;6.47;3.83;;;6.70;99.90;;;;;;2069440;28;20117;-75
2023/01/10 01:50:58;;;;;;;6.60;3.83;;;6.70;99.90;;;;;;2077928;28;20086;-75
2023/01/10 01:52:05;;;;;;;5.38;3.97;;;6.70;99.90;;;;;;2077483;28;20438;-76
2023/01/10 01:53:17;;;;;;;6.15;3.60;;;6.70;99.90;;;;;;2068955;28;20030;-75
2023/01/10 01:54:18;;;;;;;7.22;3.92;;;6.70;99.90;;;;;;2068467;28;20043;-75
2023/01/10 01:55:19;;;;;;;7.88;4.07;;;6.60;99.90;;;;;;2069031;28;20029;-76
2023/01/10 01:56:31;;;;;;;6.68;3.88;;;6.60;99.90;;;;;;2060927;28;20121;-76
2023/01/10 01:57:33;;;;;;;6.38;4.07;;;6.60;99.90;;;;;;2062414;28;20038;-76
2023/01/10 01:58:48;;;;;;;5.57;4.10;;;6.60;99.90;;;;;;2068993;28;20191;-76
2023/01/10 01:59:52;;;;;;;6.20;4.07;;;6.60;99.90;;;;;;2077717;28;20029;-76
2023/01/10 02:00:53;;;;;;;5.68;4.10;;;6.60;99.90;;;;;;2074355;28;20037;-75
2023/01/10 02:01:59;;;;;;;6.03;4.05;;;6.60;99.90;;;;;;2076230;28;20033;-75
2023/01/10 02:03:03;;;;;;;6.07;4.10;;;6.60;99.90;;;;;;2062613;28;20147;-76
2023/01/10 02:04:11;;;;;;;6.28;4.20;;;6.60;99.90;;;;;;2057844;28;20161;-75
2023/01/10 02:05:15;;;;;;;7.22;4.10;;;6.60;99.90;;;;;;2055672;28;20064;-75
2023/01/10 02:06:18;;;;;;;6.18;4.28;;;6.60;99.90;;;;;;2068111;28;20113;-75
2023/01/10 02:07:21;;;;;;;7.13;4.40;;;6.60;99.90;;;;;;2070110;28;20390;-75
2023/01/10 02:08:21;;;;;;;8.57;4.55;;;6.60;99.90;;;;;;2058353;28;20093;-75
2023/01/10 02:09:33;;;;;;;7.97;4.45;;;6.50;99.90;;;;;;2066901;28;20042;-75
2023/01/10 02:10:43;;;;;;;6.88;4.20;;;6.60;99.90;;;;;;2066748;28;20429;-75
2023/01/10 02:11:44;;;;;;;10.20;5.13;;;6.50;99.90;;;;;;2071737;28;20506;-75
2023/01/10 02:12:49;;;;;;;9.30;4.93;;;6.60;99.90;;;;;;2063886;28;20316;-76
2023/01/10 02:13:50;;;;;;;8.10;4.88;;;6.60;99.90;;;;;;2060113;28;20414;-76
2023/01/10 02:14:52;;;;;;;6.88;4.95;;;6.60;99.90;;;;;;2067707;28;20066;-75
2023/01/10 02:15:53;;;;;;;8.10;4.75;;;6.50;99.90;;;;;;2067895;28;20175;-75
2023/01/10 02:16:53;;;;;;;6.97;4.85;;;6.50;99.90;;;;;;2077530;28;20029;-75
2023/01/10 02:17:56;;;;;;;8.35;4.85;;;6.60;99.90;;;;;;2079730;28;20040;-75
2023/01/10 02:18:57;;;;;;;7.78;5.00;;;6.60;99.90;;;;;;2063349;28;20203;-75
2023/01/10 02:20:02;;;;;;;10.10;4.95;;;6.50;99.90;;;;;;2057246;28;20027;-75
2023/01/10 02:21:48;;;;;;;7.80;4.80;;;6.60;99.90;;;;;;2070374;28;20097;-76
2023/01/10 02:23:10;;;;;;;7.13;4.35;;;6.50;99.90;;;;;;2074800;28;20101;-76
2023/01/10 02:24:34;;;;;;;9.52;4.80;;;6.50;99.90;;;;;;2076170;28;20564;-76
2023/01/10 02:26:08;;;;;;;7.43;4.85;;;6.60;99.90;;;;;;2061027;28;20052;-76
2023/01/10 02:27:16;;;;;;;8.07;5.10;;;6.50;99.90;;;;;;2072001;28;20489;-76
2023/01/10 02:28:44;;;;;;;7.32;4.88;;;6.50;99.90;;;;;;2077361;28;20489;-75
2023/01/10 02:30:13;;;;;;;7.63;4.95;;;6.50;99.90;;;;;;2080059;28;20063;-77
2023/01/10 02:31:54;;;;;;;6.45;4.80;;;6.50;99.90;;;;;;2069894;28;20059;-75
2023/01/10 02:33:17;;;;;;;7.72;4.88;;;6.50;99.90;;;;;;2077705;28;20674;-76
2023/01/10 02:34:27;;;;;;;8.10;4.90;;;6.50;99.90;;;;;;2074672;28;20029;-75
2023/01/10 02:35:50;;;;;;;9.00;5.13;;;6.50;99.90;;;;;;2077373;28;20040;-75
2023/01/10 02:37:01;;;;;;;8.80;5.03;;;6.50;99.90;;;;;;2073488;28;20036;-75
2023/01/10 02:38:25;;;;;;;8.20;4.90;;;6.50;99.90;;;;;;2076920;28;20037;-74
2023/01/10 02:39:37;;;;;;;7.97;5.00;;;6.50;99.90;;;;;;2079193;28;20919;-76
2023/01/10 02:41:00;;;;;;;7.25;5.10;;;6.50;99.90;;;;;;2062677;28;20030;-75
2023/01/10 02:42:06;;;;;;;8.63;4.97;;;6.50;99.90;;;;;;2067821;28;20026;-76
2023/01/10 02:43:18;;;;;;;9.50;5.30;;;6.50;99.90;;;;;;2077657;28;20033;-75
2023/01/10 02:44:40;;;;;;;7.80;4.82;;;6.50;99.90;;;;;;2077207;28;20034;-75
2023/01/10 02:45:45;;;;;;;8.48;5.15;;;6.50;99.90;;;;;;2068057;28;20498;-76
2023/01/10 02:46:48;;;;;;;8.63;5.30;;;6.50;99.90;;;;;;2068074;28;20034;-77
2023/01/10 02:47:49;;;;;;;9.38;5.38;;;6.50;99.90;;;;;;2068438;28;20124;-75
2023/01/10 02:48:51;;;;;;;9.82;5.20;;;6.50;99.90;;;;;;2068387;28;20022;-75
2023/01/10 02:49:52;;;;;;;9.73;5.38;;;6.50;99.90;;;;;;2074228;28;20040;-73
2023/01/10 02:50:56;;;;;;;11.43;5.47;;;6.50;99.90;;;;;;2071202;28;20025;-75
2023/01/10 02:51:56;;;;;;;10.05;5.38;;;6.40;99.90;;;;;;2063575;28;20158;-76
2023/01/10 02:53:00;;;;;;;9.40;5.50;;;6.40;99.90;;;;;;2074064;28;20013;-76
2023/01/10 02:54:18;;;;;;;9.43;5.50;;;6.40;99.90;;;;;;2066626;28;20113;-75
2023/01/10 02:55:23;;;;;;;8.60;5.30;;;6.40;99.90;;;;;;2060157;28;20034;-74
2023/01/10 02:56:45;;;;;;;8.90;5.40;;;6.30;99.90;;;;;;2063787;28;20042;-75
2023/01/10 02:58:17;;;;;;;10.27;5.45;;;6.40;99.90;;;;;;2073083;28;20029;-76
2023/01/10 02:59:42;;;;;;;9.50;5.57;;;6.30;99.90;;;;;;2066888;28;20052;-75
2023/01/10 03:01:29;;;;;;;8.88;5.60;;;6.30;99.90;;;;;;2072417;28;20408;-74
2023/01/10 03:02:44;;;;;;;7.95;5.25;;;6.30;99.90;;;;;;2058858;28;20053;-75
2023/01/10 03:03:54;;;;;;;10.65;5.63;;;6.30;99.90;;;;;;2055661;28;20297;-75
2023/01/10 03:05:46;;;;;;;9.32;5.85;;;6.30;99.90;;;;;;2054911;28;20034;-74
2023/01/10 03:07:17;;;;;;;8.70;5.63;;;6.30;99.90;;;;;;2062564;28;20030;-76
2023/01/10 03:08:34;;;;;;;9.07;5.38;;;6.30;99.90;;;;;;2054431;28;20041;-74
2023/01/10 03:09:52;;;;;;;11.38;5.40;;;6.30;99.90;;;;;;2059145;28;20038;-76
2023/01/10 03:10:57;;;;;;;10.55;5.45;;;6.30;99.90;;;;;;2060344;28;20049;-76
2023/01/10 03:12:14;;;;;;;8.93;5.80;;;6.30;99.90;;;;;;2058982;28;20576;-76
2023/01/10 03:13:18;;;;;;;9.73;5.68;;;6.30;99.90;;;;;;2062238;28;20062;-75
2023/01/10 03:14:23;;;;;;;11.95;6.03;;;6.30;99.90;;;;;;2068992;28;20025;-76
2023/01/10 03:15:28;;;;;;;10.48;5.70;;;6.30;99.90;;;;;;2067527;28;20509;-69
2023/01/10 03:16:33;;;;;;;11.05;5.80;;;6.30;99.90;;;;;;2066502;28;20763;-74
2023/01/10 03:17:36;;;;;;;10.43;6.40;;;6.30;99.90;;;;;;2060416;28;20247;-76
2023/01/10 03:18:43;;;;;;;10.93;6.22;;;6.30;99.90;;;;;;2059929;28;20038;-75
2023/01/10 03:19:53;;;;;;;11.40;5.95;;;6.30;99.90;;;;;;2056087;28;20462;-76
2023/01/10 03:20:56;;;;;;;8.88;5.90;;;6.30;99.90;;;;;;2055846;28;20031;-76
2023/01/10 03:22:00;;;;;;;9.23;5.82;;;6.30;99.90;;;;;;2061831;28;20103;-76
2023/01/10 03:23:04;;;;;;;10.60;5.78;;;6.30;99.90;;;;;;2057100;28;20041;-76
2023/01/10 03:24:12;;;;;;;10.00;6.10;;;6.30;99.90;;;;;;2057413;28;20029;-76
2023/01/10 03:25:15;;;;;;;15.05;5.82;;;6.20;99.90;;;;;;2057517;28;20616;-76
2023/01/10 03:26:23;;;;;;;11.30;6.00;;;6.20;99.90;;;;;;2057953;28;20049;-75
2023/01/10 03:27:42;;;;;;;10.43;6.55;;;6.30;99.90;;;;;;2057627;28;20038;-75
2023/01/10 03:28:49;;;;;;;9.80;5.95;;;6.30;99.90;;;;;;2062059;28;20788;-75
2023/01/10 03:30:20;;;;;;;10.35;6.30;;;6.20;99.90;;;;;;2061610;28;20029;-76
2023/01/10 03:31:34;;;;;;;10.23;6.25;;;6.20;99.90;;;;;;2058947;28;20026;-75
2023/01/10 03:32:35;;;;;;;11.15;6.68;;;6.30;99.90;;;;;;2061405;28;20542;-75
2023/01/10 03:33:36;;;;;;;11.57;6.13;;;6.30;99.90;;;;;;2060806;28;20023;-75
2023/01/10 03:34:38;;;;;;;10.25;5.93;;;6.30;99.90;;;;;;2062458;28;20026;-75
2023/01/10 03:35:57;;;;;;;9.80;6.20;;;6.20;99.90;;;;;;2054322;28;20031;-74
2023/01/10 03:37:25;;;;;;;9.40;5.68;;;6.20;99.90;;;;;;2059980;28;20717;-74
2023/01/10 03:38:33;;;;;;;10.20;6.40;;;6.20;99.90;;;;;;2069639;28;20094;-75
2023/01/10 03:39:43;;;;;;;10.68;6.15;;;6.30;99.90;;;;;;2066890;28;20030;-76
2023/01/10 03:40:58;;;;;;;9.35;6.18;;;6.30;99.90;;;;;;2060828;28;20149;-76
2023/01/10 03:42:09;;;;;;;10.52;6.20;;;6.30;99.90;;;;;;2061633;28;20022;-75
2023/01/10 03:45:05;;;;;;;9.93;5.90;;;6.30;99.90;;;;;;2054648;28;20045;-75
2023/01/10 03:46:26;;;;;;;10.07;6.47;;;6.30;99.90;;;;;;2057015;28;20544;-75
2023/01/10 03:47:40;;;;;;;10.45;6.57;;;6.30;99.90;;;;;;2059315;28;20041;-75
2023/01/10 03:48:43;;;;;;;11.73;6.18;;;6.30;99.90;;;;;;2069331;28;20045;-75
2023/01/10 03:49:48;;;;;;;13.35;6.65;;;6.20;99.90;;;;;;2067221;28;20030;-74
2023/01/10 03:50:50;;;;;;;11.57;6.20;;;6.30;99.90;;;;;;2073038;28;20034;-75
2023/01/10 03:51:52;;;;;;;11.13;6.47;;;6.30;99.90;;;;;;2076014;28;20313;-75
2023/01/10 03:52:53;;;;;;;11.52;6.55;;;6.30;99.90;;;;;;2074123;28;20045;-75
2023/01/10 03:53:53;;;;;;;10.02;6.30;;;6.30;99.90;;;;;;2075813;28;20025;-75
2023/01/10 03:54:54;;;;;;;12.35;6.53;;;6.30;99.90;;;;;;2065191;28;20034;-74
2023/01/10 03:55:55;;;;;;;12.18;6.60;;;6.30;99.90;;;;;;2063890;28;20444;-74
2023/01/10 03:56:55;;;;;;;11.00;6.78;;;6.30;99.90;;;;;;2063934;28;20164;-75
2023/01/10 03:57:56;;;;;;;11.82;6.50;;;6.30;99.90;;;;;;2071188;28;20029;-73
2023/01/10 03:58:57;;;;;;;11.30;6.50;;;6.30;99.90;;;;;;2072280;28;20502;-74
2023/01/10 03:59:58;;;;;;;10.13;6.38;;;6.30;99.90;;;;;;2061103;28;20623;-74
2023/01/10 04:00:59;;;;;;;12.32;6.75;;;6.30;99.90;;;;;;2051841;28;20023;-75
2023/01/10 04:01:59;;;;;;;11.68;7.05;;;6.30;99.90;;;;;;2052222;28;20548;-74
2023/01/10 04:03:00;;;;;;;13.30;6.85;;;6.30;99.90;;;;;;2067138;28;20036;-73
2023/01/10 04:04:01;;;;;;;12.68;6.60;;;6.30;99.90;;;;;;2054946;28;20521;-74
2023/01/10 04:05:01;;;;;;;11.45;6.50;;;6.30;99.90;;;;;;2050695;28;20086;-75
2023/01/10 04:06:02;;;;;;;13.75;6.70;;;6.30;99.90;;;;;;2079087;28;20434;-75
2023/01/10 04:07:03;;;;;;;12.27;6.82;;;6.30;99.90;;;;;;2080856;28;20087;-75
2023/01/10 04:08:04;;;;;;;11.43;6.70;;;6.30;99.90;;;;;;2059508;28;20034;-75
2023/01/10 04:09:04;;;;;;;10.48;6.25;;;6.30;99.90;;;;;;2060583;28;20509;-75
2023/01/10 04:10:07;;;;;;;11.52;6.93;;;6.30;99.90;;;;;;2061896;28;20026;-75
2023/01/10 04:11:08;;;;;;;11.40;7.05;;;6.30;99.90;;;;;;2062057;28;20034;-75
2023/01/10 04:12:08;;;;;;;9.60;6.45;;;6.30;99.90;;;;;;2062168;28;20069;-75
2023/01/10 04:13:09;;;;;;;11.43;7.25;;;6.30;99.90;;;;;;2063839;28;20038;-75
2023/01/10 04:14:10;;;;;;;13.00;7.85;;;6.30;99.90;;;;;;2053353;28;20039;-74
2023/01/10 04:15:11;;;;;;;10.50;7.40;;;6.30;99.90;;;;;;2066982;28;20034;-75
2023/01/10 04:16:11;;;;;;;13.18;7.38;;;6.30;99.90;;;;;;2070939;28;20702;-75
2023/01/10 04:17:16;;;;;;;10.30;6.68;;;6.40;99.90;;;;;;2052041;28;20043;-75
2023/01/10 04:18:18;;;;;;;11.55;6.80;;;6.40;99.90;;;;;;2064083;28;20030;-76
2023/01/10 04:19:18;;;;;;;10.25;6.60;;;6.40;99.90;;;;;;2073074;28;20083;-74
2023/01/10 04:20:19;;;;;;;9.60;6.60;;;6.40;99.90;;;;;;2076274;28;20119;-76
2023/01/10 04:21:19;;;;;;;12.98;6.82;;;6.40;99.90;;;;;;2058778;28;20066;-74
2023/01/10 04:22:20;;;;;;;11.00;6.60;;;6.40;99.90;;;;;;2060721;28;20022;-75
2023/01/10 04:23:20;;;;;;;10.85;6.78;;;6.30;99.90;;;;;;2062033;28;20492;-76
2023/01/10 04:24:21;;;;;;;11.43;6.80;;;6.40;99.90;;;;;;2063668;28;20146;-75
2023/01/10 04:25:22;;;;;;;10.55;6.45;;;6.40;99.90;;;;;;2070951;28;20045;-75
2023/01/10 04:26:23;;;;;;;10.45;6.72;;;6.40;99.90;;;;;;2071863;28;20413;-76
2023/01/10 04:27:24;;;;;;;10.90;6.50;;;6.40;99.90;;;;;;2061681;28;20306;-75
2023/01/10 04:28:24;;;;;;;10.98;6.40;;;6.30;99.90;;;;;;2061767;28;20062;-76
2023/01/10 04:29:26;;;;;;;11.85;6.32;;;6.30;99.90;;;;;;2062322;28;20080;-75
2023/01/10 04:30:30;;;;;;;13.90;7.05;;;6.40;99.90;;;;;;2061033;28;20088;-75
2023/01/10 04:31:31;;;;;;;11.70;6.60;;;6.30;99.90;;;;;;2062224;28;20030;-75
2023/01/10 04:32:31;;;;;;;12.88;6.75;;;6.40;99.90;;;;;;2076924;28;20482;-76
2023/01/10 04:33:32;;;;;;;10.57;6.35;;;6.30;99.90;;;;;;2072619;28;20037;-76
2023/01/10 04:34:33;;;;;;;12.02;6.40;;;6.40;99.90;;;;;;2060563;28;20069;-76
2023/01/10 04:35:33;;;;;;;11.45;7.15;;;6.40;99.90;;;;;;2063849;28;20553;-76
2023/01/10 04:36:35;;;;;;;11.48;6.40;;;6.40;99.90;;;;;;2051447;28;20146;-76
2023/01/10 04:37:36;;;;;;;11.38;6.72;;;6.40;99.90;;;;;;2053263;28;20031;-77
2023/01/10 04:38:37;;;;;;;11.48;6.70;;;6.40;99.90;;;;;;2051280;28;20120;-76
2023/01/10 04:39:37;;;;;;;11.60;6.90;;;6.40;99.90;;;;;;2060841;28;20042;-76
2023/01/10 04:40:38;;;;;;;12.93;7.10;;;6.40;99.90;;;;;;2068097;28;20022;-76
2023/01/10 04:41:38;;;;;;;13.73;7.07;;;6.40;99.90;;;;;;2058952;28;20041;-76
2023/01/10 04:42:39;;;;;;;11.93;7.13;;;6.30;99.90;;;;;;2059673;28;20034;-76
2023/01/10 04:43:40;;;;;;;12.73;7.38;;;6.30;99.90;;;;;;2077370;28;20029;-76
2023/01/10 04:44:40;;;;;;;12.77;7.40;;;6.40;99.90;;;;;;2070288;28;20033;-75
2023/01/10 04:45:42;;;;;;;10.70;7.10;;;6.40;99.90;;;;;;2060864;28;20562;-76
2023/01/10 04:46:42;;;;;;;12.45;6.70;;;6.30;99.90;;;;;;2064412;28;20456;-74
2023/01/10 04:47:48;;;;;;;12.48;7.45;;;6.30;99.90;;;;;;2055123;28;20035;-74
2023/01/10 04:48:49;;;;;;;15.48;7.53;;;6.30;99.90;;;;;;2067980;28;20037;-75
2023/01/10 04:49:49;;;;;;;13.73;7.38;;;6.40;99.90;;;;;;2061883;28;20041;-74
2023/01/10 04:50:51;;;;;;;12.95;7.10;;;6.40;99.90;;;;;;2062290;28;20026;-75
2023/01/10 04:51:51;;;;;;;12.88;7.20;;;6.40;99.90;;;;;;2061815;28;20513;-75
2023/01/10 04:52:52;;;;;;;13.18;7.07;;;6.40;99.90;;;;;;2064315;28;20034;-74
2023/01/10 04:53:53;;;;;;;14.05;7.68;;;6.40;99.90;;;;;;2062411;28;20189;-75
2023/01/10 04:54:53;;;;;;;14.15;7.32;;;6.30;99.90;;;;;;2063548;28;20080;-75
2023/01/10 04:55:54;;;;;;;11.88;7.50;;;6.40;99.90;;;;;;2063112;28;20026;-74
2023/01/10 04:56:54;;;;;;;12.40;7.50;;;6.30;99.90;;;;;;2064226;28;20030;-75
2023/01/10 04:57:55;;;;;;;12.85;7.40;;;6.40;99.90;;;;;;2059496;28;20034;-75
2023/01/10 04:58:55;;;;;;;14.50;7.70;;;6.30;99.90;;;;;;2059709;28;20026;-75
2023/01/10 04:59:56;;;;;;;13.00;7.63;;;6.30;99.90;;;;;;2060072;28;20034;-75
2023/01/10 05:00:56;;;;;;;12.25;7.38;;;6.30;99.90;;;;;;2056416;28;20092;-75
2023/01/10 05:01:57;;;;;;;12.05;7.93;;;6.40;99.90;;;;;;2057821;28;20490;-75
2023/01/10 05:02:58;;;;;;;11.85;7.10;;;6.40;99.90;;;;;;2067036;28;20038;-74
2023/01/10 05:03:58;;;;;;;13.05;7.80;;;6.30;99.90;;;;;;2062666;28;20112;-75
2023/01/10 05:04:59;;;;;;;11.65;7.57;;;6.40;99.90;;;;;;2059504;28;20034;-74
2023/01/10 05:05:59;;;;;;;13.52;8.07;;;6.30;99.90;;;;;;2061522;28;20029;-77
2023/01/10 05:07:00;;;;;;;13.80;8.02;;;6.30;99.90;;;;;;2060793;28;20037;-76
2023/01/10 05:08:00;;;;;;;14.07;7.80;;;6.30;99.90;;;;;;2056370;28;20133;-77
2023/01/10 05:09:01;;;;;;;12.38;7.72;;;6.30;99.90;;;;;;2058904;28;20034;-78
2023/01/10 05:10:04;;;;;;;14.90;7.88;;;6.30;99.90;;;;;;2073998;28;20485;-78
2023/01/10 05:11:24;;;;;;;14.13;7.68;;;6.30;99.90;;;;;;2068784;28;20109;-79
2023/01/10 05:12:43;;;;;;;15.80;8.00;;;6.30;99.90;;;;;;2064518;28;20040;-79
2023/01/10 05:13:44;;;;;;;10.82;7.68;;;6.30;99.90;;;;;;2066359;28;20044;-77
2023/01/10 05:14:44;;;;;;;14.18;8.13;;;6.40;99.90;;;;;;2070798;28;20354;-76
2023/01/10 05:15:45;;;;;;;13.70;7.97;;;6.30;99.90;;;;;;2061690;28;20195;-77
2023/01/10 05:16:45;;;;;;;13.50;8.18;;;6.30;99.90;;;;;;2061426;28;20481;-78
2023/01/10 05:17:46;;;;;;;11.55;8.02;;;6.30;99.90;;;;;;2061970;28;20022;-77
2023/01/10 05:18:47;;;;;;;11.80;7.88;;;6.30;99.90;;;;;;2053512;28;20135;-78
2023/01/10 05:19:47;;;;;;;13.70;7.72;;;6.30;99.90;;;;;;2052053;28;20117;-79
2023/01/10 05:20:48;;;;;;;13.07;7.80;;;6.30;99.90;;;;;;2058412;28;20032;-75
2023/01/10 05:21:50;;;;;;;13.15;7.88;;;6.40;99.90;;;;;;2061987;28;20091;-74
2023/01/10 05:22:51;;;;;;;12.43;7.70;;;6.30;99.90;;;;;;2065093;28;20030;-77
2023/01/10 05:23:51;;;;;;;12.65;8.07;;;6.30;99.90;;;;;;2063382;28;20026;-78
2023/01/10 05:24:52;;;;;;;13.98;8.00;;;6.30;99.90;;;;;;2049805;28;20038;-79
2023/01/10 05:25:53;;;;;;;15.10;8.15;;;6.40;99.90;;;;;;2054437;28;20033;-79
2023/01/10 05:26:53;;;;;;;12.35;7.97;;;6.40;99.90;;;;;;2063686;28;20060;-79
2023/01/10 05:27:54;;;;;;;12.43;7.95;;;6.40;99.90;;;;;;2060117;28;20034;-80
2023/01/10 05:28:54;;;;;;;13.95;8.23;;;6.40;99.90;;;;;;2059211;28;20058;-83
2023/01/10 05:29:55;;;;;;;14.23;8.07;;;6.30;99.90;;;;;;2053321;28;20027;-81
2023/01/10 05:30:55;;;;;;;13.80;8.25;;;6.40;99.90;;;;;;2061202;28;20030;-78
2023/01/10 05:31:56;;;;;;;14.45;8.05;;;6.40;99.90;;;;;;2054833;28;20034;-79
2023/01/10 05:32:56;;;;;;;15.35;8.50;;;6.30;99.90;;;;;;2054394;28;20111;-81
2023/01/10 05:33:57;;;;;;;17.33;8.65;;;6.40;99.90;;;;;;2056045;28;20158;-80
2023/01/10 05:34:58;;;;;;;15.32;8.23;;;6.30;99.90;;;;;;2061654;28;20418;-82
2023/01/10 05:36:03;;;;;;;14.63;7.90;;;6.40;99.90;;;;;;2062197;28;20058;-81
2023/01/10 05:37:04;;;;;;;12.68;8.10;;;6.30;99.90;;;;;;2067146;28;20038;-82
2023/01/10 05:38:04;;;;;;;13.10;7.95;;;6.40;99.90;;;;;;2062359;28;20060;-81
2023/01/10 05:39:05;;;;;;;12.23;8.13;;;6.30;99.90;;;;;;2061204;28;20505;-81
2023/01/10 05:40:07;;;;;;;12.80;8.02;;;6.30;99.90;;;;;;2064832;28;20675;-79
2023/01/10 05:41:07;;;;;;;13.88;8.23;;;6.30;99.90;;;;;;2057938;28;20049;-78
2023/01/10 05:42:08;;;;;;;13.63;7.78;;;6.40;99.90;;;;;;2051315;28;20027;-77
2023/01/10 05:43:10;;;;;;;15.45;8.23;;;6.40;99.90;;;;;;2071855;28;20056;-78
2023/01/10 05:44:11;;;;;;;12.45;8.50;;;6.30;99.90;;;;;;2070989;28;20025;-78
2023/01/10 05:45:12;;;;;;;13.18;8.13;;;6.30;99.90;;;;;;2057316;28;20054;-77
2023/01/10 05:46:12;;;;;;;13.00;8.68;;;6.40;99.90;;;;;;2059563;28;20034;-78
2023/01/10 05:47:13;;;;;;;15.88;8.00;;;6.30;99.90;;;;;;2049557;28;20085;-77